createdAt,value
2023-05-31T00:00:17.798Z,15.46
2023-05-31T00:02:45.381Z,15.41
2023-05-31T00:05:12.768Z,15.38
2023-05-31T00:07:41.484Z,15.33
2023-05-31T00:10:08.915Z,15.32
2023-05-31T00:12:36.243Z,15.31
2023-05-31T00:15:03.590Z,15.33
2023-05-31T00:17:50.011Z,15.35
2023-05-31T00:20:18.749Z,15.33
2023-05-31T00:22:45.840Z,15.32
2023-05-31T00:25:13.297Z,15.31
2023-05-31T00:27:40.783Z,15.30
2023-05-31T00:30:08.317Z,15.30
2023-05-31T00:32:35.677Z,15.29
2023-05-31T00:35:03.029Z,15.29
2023-05-31T00:37:36.768Z,15.28
2023-05-31T00:40:06.536Z,15.27
2023-05-31T00:42:33.750Z,15.27
2023-05-31T00:45:00.631Z,15.31
2023-05-31T00:47:28.467Z,15.35
2023-05-31T00:49:56.550Z,15.41
2023-05-31T00:52:24.283Z,15.46
2023-05-31T00:54:52.206Z,15.46
2023-05-31T00:57:19.401Z,15.44
2023-05-31T00:59:46.580Z,15.42
2023-05-31T01:02:18.095Z,15.36
2023-05-31T01:04:45.335Z,15.31
2023-05-31T01:07:12.343Z,15.23
2023-05-31T01:09:43.498Z,15.16
2023-05-31T01:12:22.507Z,15.05
2023-05-31T01:15:19.146Z,14.91
2023-05-31T01:17:51.044Z,14.78
2023-05-31T01:20:22.534Z,14.67
2023-05-31T01:23:44.265Z,14.56
2023-05-31T01:26:42.169Z,14.42
2023-05-31T01:29:15.049Z,14.30
2023-05-31T01:31:42.529Z,14.22
2023-05-31T01:34:11.326Z,14.14
2023-05-31T01:36:38.475Z,14.05
2023-05-31T01:39:06.401Z,13.96
2023-05-31T01:41:39.901Z,13.87
2023-05-31T01:44:09.431Z,13.77
2023-05-31T01:46:38.961Z,13.70
2023-05-31T01:49:06.240Z,13.65
2023-05-31T01:51:36.283Z,13.61
2023-05-31T01:54:03.658Z,13.57
2023-05-31T01:56:32.852Z,13.53
2023-05-31T01:59:00.743Z,13.52
2023-05-31T02:01:27.961Z,13.52
2023-05-31T02:03:56.229Z,13.57
2023-05-31T02:06:27.798Z,13.62
2023-05-31T02:08:55.453Z,13.71
2023-05-31T02:11:27.275Z,13.79
2023-05-31T02:13:56.371Z,13.90
2023-05-31T02:16:23.616Z,14.06
2023-05-31T02:18:51.825Z,14.23
2023-05-31T02:21:22.426Z,14.40
2023-05-31T02:23:49.595Z,14.57
2023-05-31T02:26:18.105Z,14.77
2023-05-31T02:28:46.800Z,15.00
2023-05-31T02:31:14.213Z,15.20
2023-05-31T02:33:45.245Z,15.40
2023-05-31T02:36:12.170Z,15.57
2023-05-31T02:38:39.801Z,15.77
2023-05-31T02:41:06.686Z,15.98
2023-05-31T02:43:34.023Z,16.25
2023-05-31T02:46:02.292Z,16.49
2023-05-31T02:48:30.094Z,16.67
2023-05-31T02:50:58.231Z,16.87
2023-05-31T02:53:44.096Z,17.12
2023-05-31T02:56:15.530Z,17.39
2023-05-31T02:58:42.264Z,17.54
2023-05-31T03:01:34.751Z,17.85
2023-05-31T03:04:25.871Z,18.12
2023-05-31T03:06:52.954Z,18.44
2023-05-31T03:09:19.952Z,18.77
2023-05-31T03:11:47.118Z,19.00
2023-05-31T03:14:14.119Z,19.24
2023-05-31T03:16:45.912Z,19.45
2023-05-31T03:19:14.090Z,19.72
2023-05-31T03:21:42.327Z,19.97
2023-05-31T03:24:09.242Z,20.14
2023-05-31T03:26:37.046Z,20.14
2023-05-31T03:29:04.201Z,20.33
2023-05-31T03:31:31.566Z,20.48
2023-05-31T03:33:59.888Z,20.63
2023-05-31T03:36:27.635Z,20.85
2023-05-31T03:38:54.854Z,21.11
2023-05-31T03:41:22.987Z,21.30
2023-05-31T03:43:51.340Z,21.39
2023-05-31T03:46:18.594Z,21.54
2023-05-31T03:48:45.672Z,21.43
2023-05-31T03:51:13.080Z,21.75
2023-05-31T03:53:39.810Z,21.77
2023-05-31T03:56:07.304Z,21.89
2023-05-31T03:58:34.590Z,22.11
2023-05-31T04:01:03.219Z,22.09
2023-05-31T04:03:30.868Z,22.20
2023-05-31T04:05:57.725Z,22.42
2023-05-31T04:08:25.200Z,22.73
2023-05-31T04:10:52.249Z,22.94
2023-05-31T04:13:19.161Z,22.61
2023-05-31T04:15:46.253Z,22.16
2023-05-31T04:18:13.133Z,21.79
2023-05-31T04:20:40.412Z,21.96
2023-05-31T04:23:07.383Z,22.49
2023-05-31T04:25:34.707Z,22.79
2023-05-31T04:28:02.310Z,22.95
2023-05-31T04:30:29.650Z,23.28
2023-05-31T04:32:57.937Z,23.59
2023-05-31T04:35:29.209Z,23.88
2023-05-31T04:42:25.002Z,23.00
2023-05-31T04:45:01.732Z,23.54
2023-05-31T04:47:33.491Z,24.18
2023-05-31T04:50:00.887Z,24.50
2023-05-31T04:52:33.094Z,24.67
2023-05-31T04:55:01.458Z,24.75
2023-05-31T04:57:30.664Z,24.85
2023-05-31T05:00:00.265Z,25.04
2023-05-31T05:02:27.520Z,25.40
2023-05-31T05:04:55.276Z,25.82
2023-05-31T05:07:22.597Z,26.28
2023-05-31T05:09:49.897Z,26.69
2023-05-31T05:12:16.959Z,26.90
2023-05-31T05:14:45.766Z,26.68
2023-05-31T05:17:13.278Z,26.77
2023-05-31T05:19:40.605Z,27.35
2023-05-31T05:22:11.467Z,27.72
2023-05-31T05:24:38.699Z,28.04
2023-05-31T05:27:06.870Z,28.22
2023-05-31T05:29:35.103Z,28.43
2023-05-31T05:32:02.177Z,28.77
2023-05-31T05:34:29.262Z,28.97
2023-05-31T05:36:57.699Z,29.54
2023-05-31T05:39:24.633Z,30.11
2023-05-31T05:41:53.296Z,30.33
2023-05-31T05:44:20.218Z,30.46
2023-05-31T05:46:47.311Z,30.64
2023-05-31T05:49:16.316Z,30.78
2023-05-31T05:51:45.081Z,30.93
2023-05-31T05:54:12.493Z,31.23
2023-05-31T05:56:40.088Z,31.41
2023-05-31T05:59:07.583Z,31.74
2023-05-31T06:01:58.120Z,32.12
2023-05-31T06:04:26.497Z,31.89
2023-05-31T06:06:53.760Z,31.65
2023-05-31T06:09:21.863Z,31.73
2023-05-31T06:11:49.920Z,31.54
2023-05-31T06:14:17.114Z,31.47
2023-05-31T06:16:47.269Z,31.38
2023-05-31T06:19:14.309Z,31.50
2023-05-31T06:21:41.772Z,31.62
2023-05-31T06:24:08.525Z,31.53
2023-05-31T06:26:36.736Z,31.46
2023-05-31T06:29:04.701Z,31.48
2023-05-31T06:32:10.370Z,31.65
2023-05-31T06:34:41.322Z,31.66
2023-05-31T06:37:09.494Z,31.57
2023-05-31T06:39:37.088Z,31.29
2023-05-31T06:42:04.425Z,31.47
2023-05-31T06:44:57.060Z,30.74
2023-05-31T06:47:44.941Z,30.51
2023-05-31T06:50:38.146Z,30.29
2023-05-31T06:53:24.370Z,29.98
2023-05-31T06:55:58.131Z,29.51
2023-05-31T06:58:30.122Z,29.29
2023-05-31T07:00:57.143Z,29.20
2023-05-31T07:03:24.493Z,28.70
2023-05-31T07:05:52.026Z,27.36
2023-05-31T07:08:19.429Z,26.11
2023-05-31T07:11:05.306Z,25.00
2023-05-31T07:13:32.687Z,23.99
2023-05-31T07:15:59.905Z,23.20
2023-05-31T07:18:27.496Z,22.70
2023-05-31T07:20:57.386Z,22.19
2023-05-31T07:23:27.433Z,21.81
2023-05-31T07:25:54.415Z,21.60
2023-05-31T07:28:21.430Z,21.19
2023-05-31T07:30:48.228Z,21.04
2023-05-31T07:33:21.957Z,20.76
2023-05-31T07:36:00.058Z,20.53
2023-05-31T07:38:28.302Z,20.25
2023-05-31T07:40:55.355Z,20.19
2023-05-31T07:43:24.054Z,19.93
2023-05-31T07:45:54.770Z,19.78
2023-05-31T07:48:21.889Z,19.85
2023-05-31T07:50:48.997Z,19.84
2023-05-31T07:53:16.030Z,19.89
2023-05-31T07:55:43.729Z,19.80
2023-05-31T07:58:12.001Z,19.73
2023-05-31T08:00:40.092Z,19.65
2023-05-31T08:03:07.669Z,19.60
2023-05-31T08:05:34.585Z,19.52
2023-05-31T08:08:01.547Z,19.43
2023-05-31T08:10:30.467Z,19.40
2023-05-31T08:12:57.431Z,19.33
2023-05-31T08:15:24.624Z,19.28
2023-05-31T08:17:51.927Z,19.29
2023-05-31T08:20:19.493Z,19.22
2023-05-31T08:22:46.710Z,19.16
2023-05-31T08:25:14.877Z,19.17
2023-05-31T08:27:42.609Z,19.19
2023-05-31T08:30:10.664Z,19.14
2023-05-31T08:32:38.925Z,19.10
2023-05-31T08:35:12.814Z,18.99
2023-05-31T08:37:40.802Z,18.89
2023-05-31T08:40:09.197Z,18.81
2023-05-31T08:42:46.046Z,18.81
2023-05-31T08:45:13.340Z,18.71
2023-05-31T08:47:44.552Z,18.70
2023-05-31T08:50:12.852Z,18.71
2023-05-31T08:52:40.604Z,18.75
2023-05-31T08:55:08.601Z,18.76
2023-05-31T08:57:37.499Z,18.76
2023-05-31T09:00:11.584Z,18.81
2023-05-31T09:02:39.141Z,18.84
2023-05-31T09:05:10.966Z,18.96
2023-05-31T09:07:39.091Z,19.03
2023-05-31T09:10:09.368Z,19.07
2023-05-31T09:12:37.131Z,19.04
2023-05-31T09:15:06.504Z,19.04
2023-05-31T09:17:33.945Z,19.07
2023-05-31T09:20:01.687Z,19.12
2023-05-31T09:22:29.278Z,19.15
2023-05-31T09:24:59.313Z,19.09
2023-05-31T09:27:34.267Z,19.06
2023-05-31T09:30:05.758Z,19.11
2023-05-31T09:32:36.498Z,19.07
2023-05-31T09:35:14.917Z,19.05
2023-05-31T09:37:47.125Z,18.98
2023-05-31T09:40:25.410Z,18.99
2023-05-31T09:42:55.529Z,19.06
2023-05-31T09:45:23.489Z,19.13
2023-05-31T09:47:51.203Z,19.15
2023-05-31T09:50:20.661Z,19.16
2023-05-31T09:52:52.521Z,19.16
2023-05-31T09:55:19.368Z,19.24
2023-05-31T09:57:46.998Z,19.32
2023-05-31T10:00:21.508Z,19.34
2023-05-31T10:02:55.215Z,19.32
2023-05-31T10:05:22.528Z,19.34
2023-05-31T10:07:52.673Z,19.37
2023-05-31T10:10:22.740Z,19.41
2023-05-31T10:12:52.277Z,19.34
2023-05-31T10:15:24.602Z,19.30
2023-05-31T10:18:15.913Z,19.34
2023-05-31T10:21:00.346Z,19.41
2023-05-31T10:23:30.462Z,19.30
2023-05-31T10:26:16.322Z,19.27
2023-05-31T10:28:56.065Z,19.26
2023-05-31T10:31:26.764Z,19.35
2023-05-31T10:34:01.645Z,19.35
2023-05-31T10:36:29.059Z,19.28
2023-05-31T10:39:04.022Z,19.36
2023-05-31T10:41:43.801Z,19.36
2023-05-31T10:44:23.711Z,19.41
2023-05-31T10:46:59.535Z,19.36
2023-05-31T10:49:28.485Z,19.31
2023-05-31T10:52:04.620Z,19.21
2023-05-31T10:54:33.601Z,19.24
2023-05-31T10:57:04.288Z,19.32
2023-05-31T10:59:41.887Z,19.29
2023-05-31T11:02:12.260Z,19.44
2023-05-31T11:04:39.661Z,19.51
2023-05-31T11:07:15.313Z,19.48
2023-05-31T11:09:54.123Z,19.46
2023-05-31T11:12:37.376Z,19.45
2023-05-31T11:15:06.047Z,19.45
2023-05-31T11:17:50.802Z,19.46
2023-05-31T11:20:19.195Z,19.50
2023-05-31T11:22:46.935Z,19.58
2023-05-31T11:25:23.868Z,19.56
2023-05-31T11:28:06.644Z,19.61
2023-05-31T11:30:38.356Z,19.67
2023-05-31T11:33:15.184Z,19.66
2023-05-31T11:35:42.227Z,19.72
2023-05-31T11:38:10.245Z,19.75
2023-05-31T11:40:37.382Z,19.70
2023-05-31T11:43:09.775Z,19.71
2023-05-31T11:45:41.293Z,19.73
2023-05-31T11:48:37.111Z,19.82
2023-05-31T11:51:04.880Z,19.81
2023-05-31T11:53:32.764Z,19.77
2023-05-31T11:55:59.735Z,19.76
2023-05-31T11:58:27.356Z,19.79
2023-05-31T12:00:58.003Z,19.81
2023-05-31T12:03:24.894Z,19.77
2023-05-31T12:05:56.740Z,19.75
2023-05-31T12:10:21.190Z,19.79
2023-05-31T12:12:48.405Z,19.77
2023-05-31T12:15:17.354Z,19.87
2023-05-31T12:17:44.510Z,19.93
2023-05-31T12:20:13.155Z,20.00
2023-05-31T12:22:40.932Z,20.02
2023-05-31T12:25:10.338Z,20.04
2023-05-31T12:30:20.525Z,19.92
2023-05-31T12:32:47.671Z,19.96
2023-05-31T12:35:15.453Z,20.01
2023-05-31T12:37:42.829Z,20.03
2023-05-31T12:40:10.080Z,20.01
2023-05-31T12:42:38.740Z,20.00
2023-05-31T12:45:06.461Z,19.94
2023-05-31T12:47:36.268Z,19.90
2023-05-31T12:50:07.841Z,19.98
2023-05-31T12:52:39.323Z,19.99
2023-05-31T12:55:08.363Z,20.00
2023-05-31T12:57:36.561Z,19.95
2023-05-31T13:00:12.051Z,19.99
2023-05-31T13:02:40.943Z,20.01
2023-05-31T13:05:08.710Z,20.05
2023-05-31T13:07:36.807Z,20.06
2023-05-31T13:10:09.260Z,20.08
2023-05-31T13:12:38.789Z,20.02
2023-05-31T13:15:07.575Z,20.12
2023-05-31T13:17:34.917Z,20.11
2023-05-31T13:20:11.823Z,20.16
2023-05-31T13:22:41.966Z,20.15
2023-05-31T13:25:09.892Z,20.13
2023-05-31T13:27:37.186Z,20.13
2023-05-31T13:30:04.809Z,20.16
2023-05-31T13:32:32.954Z,20.22
2023-05-31T13:35:01.211Z,20.27
2023-05-31T13:37:28.683Z,20.33
2023-05-31T13:39:56.246Z,20.35
2023-05-31T13:42:23.503Z,20.35
2023-05-31T13:44:50.800Z,20.37
2023-05-31T13:47:17.689Z,20.39
2023-05-31T13:49:45.135Z,20.35
2023-05-31T13:52:15.484Z,20.37
2023-05-31T13:54:42.458Z,20.34
2023-05-31T13:57:09.425Z,20.28
2023-05-31T13:59:37.645Z,20.26
2023-05-31T14:02:05.288Z,20.36
2023-05-31T14:04:34.789Z,20.33
2023-05-31T14:07:03.801Z,20.29
2023-05-31T14:09:31.030Z,20.29
2023-05-31T14:11:58.877Z,20.33
2023-05-31T14:14:27.508Z,20.31
2023-05-31T14:16:55.055Z,20.31
2023-05-31T14:19:22.054Z,20.35
2023-05-31T14:21:48.963Z,20.37
2023-05-31T14:24:16.981Z,20.35
2023-05-31T14:26:43.844Z,20.36
2023-05-31T14:29:11.066Z,20.39
2023-05-31T14:31:38.584Z,20.44
2023-05-31T14:34:05.933Z,20.49
2023-05-31T14:36:33.368Z,20.51
2023-05-31T14:39:04.566Z,20.47
2023-05-31T14:41:31.546Z,20.51
2023-05-31T14:43:58.531Z,20.50
2023-05-31T14:46:25.595Z,20.50
2023-05-31T14:48:54.222Z,20.47
2023-05-31T14:51:22.564Z,20.42
2023-05-31T14:53:51.996Z,20.41
2023-05-31T14:56:21.418Z,20.44
2023-05-31T14:58:48.721Z,20.50
2023-05-31T15:01:16.246Z,20.49
2023-05-31T15:03:43.555Z,20.52
2023-05-31T15:06:10.701Z,20.52
2023-05-31T15:08:38.198Z,20.51
2023-05-31T15:11:05.326Z,20.54
2023-05-31T15:13:33.270Z,20.51
2023-05-31T15:16:01.390Z,20.52
2023-05-31T15:18:30.105Z,20.54
2023-05-31T15:20:57.176Z,20.54
2023-05-31T15:23:24.645Z,20.55
2023-05-31T15:25:51.612Z,20.56
2023-05-31T15:28:18.576Z,20.55
2023-05-31T15:30:48.050Z,20.53
2023-05-31T15:33:15.429Z,20.51
2023-05-31T15:35:42.520Z,20.51
2023-05-31T15:38:09.693Z,20.49
2023-05-31T15:40:36.794Z,20.48
2023-05-31T15:43:03.885Z,20.40
2023-05-31T15:45:30.938Z,20.38
2023-05-31T15:47:57.698Z,20.38
2023-05-31T15:50:25.132Z,20.36
2023-05-31T15:52:51.871Z,20.37
2023-05-31T15:55:18.768Z,20.40
2023-05-31T15:57:45.793Z,20.41
2023-05-31T16:00:13.278Z,20.39
2023-05-31T16:02:40.794Z,20.38
2023-05-31T16:05:09.482Z,20.41
2023-05-31T16:07:38.074Z,20.42
2023-05-31T16:10:05.405Z,20.40
2023-05-31T16:12:33.138Z,20.38
2023-05-31T16:15:01.296Z,20.39
2023-05-31T16:17:28.210Z,20.41
2023-05-31T16:19:56.157Z,20.44
2023-05-31T16:22:23.283Z,20.44
2023-05-31T16:24:50.990Z,20.47
2023-05-31T16:27:18.511Z,20.50
2023-05-31T16:29:45.617Z,20.54
2023-05-31T16:32:12.468Z,20.58
2023-05-31T16:34:39.470Z,20.59
2023-05-31T16:37:08.919Z,20.59
2023-05-31T16:39:37.787Z,20.60
2023-05-31T16:42:06.712Z,20.60
2023-05-31T16:44:35.580Z,20.53
2023-05-31T16:47:02.969Z,20.51
2023-05-31T16:49:30.049Z,20.47
2023-05-31T16:51:57.453Z,20.42
2023-05-31T16:54:24.540Z,20.37
2023-05-31T16:56:51.592Z,20.31
2023-05-31T16:59:18.610Z,20.24
2023-05-31T17:01:45.442Z,20.17
2023-05-31T17:04:12.555Z,20.14
2023-05-31T17:06:39.560Z,20.08
2023-05-31T17:09:06.378Z,20.02
2023-05-31T17:11:37.233Z,19.96
2023-05-31T17:14:04.380Z,19.87
2023-05-31T17:16:31.611Z,19.80
2023-05-31T17:18:59.506Z,19.75
2023-05-31T17:21:30.125Z,19.72
2023-05-31T17:23:57.247Z,19.63
2023-05-31T17:26:26.333Z,19.55
2023-05-31T17:28:54.111Z,19.49
2023-05-31T17:31:21.690Z,19.42
2023-05-31T17:33:48.545Z,19.36
2023-05-31T17:36:15.388Z,19.27
2023-05-31T17:38:42.338Z,19.18
2023-05-31T17:41:09.219Z,19.08
2023-05-31T17:43:36.957Z,18.98
2023-05-31T17:46:03.957Z,18.88
2023-05-31T17:48:31.203Z,18.80
2023-05-31T17:50:59.664Z,18.73
2023-05-31T17:53:26.603Z,18.64
2023-05-31T17:55:53.934Z,18.54
2023-05-31T17:58:23.413Z,18.45
2023-05-31T18:00:50.427Z,18.35
2023-05-31T18:03:17.421Z,18.25
2023-05-31T18:05:44.341Z,18.18
2023-05-31T18:08:11.252Z,18.13
2023-05-31T18:10:38.764Z,18.07
2023-05-31T18:13:05.648Z,18.00
2023-05-31T18:15:32.775Z,17.95
2023-05-31T18:17:59.996Z,17.91
2023-05-31T18:20:27.726Z,17.86
2023-05-31T18:22:54.822Z,17.80
2023-05-31T18:25:28.833Z,17.75
2023-05-31T18:27:56.303Z,17.71
2023-05-31T18:30:24.628Z,17.66
2023-05-31T18:32:51.509Z,17.63
2023-05-31T18:35:19.210Z,17.60
2023-05-31T18:37:46.403Z,17.58
2023-05-31T18:40:13.497Z,17.54
2023-05-31T18:42:40.637Z,17.52
2023-05-31T18:45:08.089Z,17.49
2023-05-31T18:47:38.802Z,17.45
2023-05-31T18:50:06.781Z,17.42
2023-05-31T18:52:34.835Z,17.39
2023-05-31T18:55:01.558Z,17.36
2023-05-31T18:57:28.935Z,17.35
2023-05-31T18:59:57.520Z,17.31
2023-05-31T19:02:24.647Z,17.26
2023-05-31T19:04:51.505Z,17.22
2023-05-31T19:07:18.525Z,17.21
2023-05-31T19:09:45.889Z,17.21
2023-05-31T19:12:26.664Z,17.21
2023-05-31T19:14:57.764Z,17.22
2023-05-31T19:17:24.724Z,17.21
2023-05-31T19:19:51.549Z,17.18
2023-05-31T19:22:20.284Z,17.17
2023-05-31T19:24:46.982Z,17.15
2023-05-31T19:27:13.921Z,17.14
2023-05-31T19:29:41.713Z,17.11
2023-05-31T19:32:09.661Z,17.09
2023-05-31T19:34:37.946Z,17.06
2023-05-31T19:37:05.363Z,17.06
2023-05-31T19:39:32.493Z,17.01
2023-05-31T19:42:00.502Z,16.97
2023-05-31T19:44:27.740Z,16.90
2023-05-31T19:46:56.612Z,16.85
2023-05-31T19:49:24.147Z,16.79
2023-05-31T19:51:52.056Z,16.74
2023-05-31T19:54:22.406Z,16.68
2023-05-31T19:56:49.113Z,16.61
2023-05-31T19:59:16.915Z,16.53
2023-05-31T20:01:43.704Z,16.46
2023-05-31T20:04:11.122Z,16.38
2023-05-31T20:06:38.269Z,16.29
2023-05-31T20:09:05.343Z,16.20
2023-05-31T20:11:35.737Z,16.12
2023-05-31T20:14:04.043Z,16.05
2023-05-31T20:16:31.786Z,15.97
2023-05-31T20:18:59.181Z,15.92
2023-05-31T20:21:26.120Z,15.86
2023-05-31T20:23:53.080Z,15.80
2023-05-31T20:26:25.582Z,15.75
2023-05-31T20:28:52.555Z,15.71
2023-05-31T20:31:19.421Z,15.68
2023-05-31T20:33:46.333Z,15.65
2023-05-31T20:36:13.209Z,15.62
2023-05-31T20:38:41.515Z,15.60
2023-05-31T20:41:09.132Z,15.57
2023-05-31T20:43:36.525Z,15.54
2023-05-31T20:46:08.409Z,15.52
2023-05-31T20:48:37.992Z,15.49
2023-05-31T20:51:04.890Z,15.45
2023-05-31T20:53:33.172Z,15.42
2023-05-31T20:56:01.456Z,15.39
2023-05-31T20:58:31.691Z,15.36
2023-05-31T21:00:59.710Z,15.36
2023-05-31T21:03:27.942Z,15.34
2023-05-31T21:05:55.309Z,15.31
2023-05-31T21:08:24.103Z,15.27
2023-05-31T21:10:52.026Z,15.25
2023-05-31T21:13:19.596Z,15.22
2023-05-31T21:15:46.742Z,15.20
2023-05-31T21:18:13.996Z,15.17
2023-05-31T21:23:26.664Z,15.11
2023-05-31T21:25:53.703Z,15.09
2023-05-31T21:28:21.740Z,15.08
2023-05-31T21:30:48.772Z,15.07
2023-05-31T21:33:18.610Z,15.06
2023-05-31T21:35:46.874Z,15.05
2023-05-31T21:38:17.522Z,15.03
2023-05-31T21:40:44.232Z,14.99
2023-05-31T21:43:14.028Z,14.97
2023-05-31T21:45:41.036Z,14.96
2023-05-31T21:48:08.247Z,14.96
2023-05-31T21:50:40.301Z,14.94
2023-05-31T21:53:07.126Z,14.91
2023-05-31T21:55:34.141Z,14.88
2023-05-31T21:58:01.094Z,14.85
2023-05-31T22:00:29.547Z,14.82
2023-05-31T22:02:57.315Z,14.79
2023-05-31T22:05:24.472Z,14.76
2023-05-31T22:07:51.647Z,14.74
2023-05-31T22:10:27.583Z,14.72
2023-05-31T22:12:57.956Z,14.70
2023-05-31T22:15:26.678Z,14.67
2023-05-31T22:17:58.735Z,14.64
2023-05-31T22:20:27.149Z,14.61
2023-05-31T22:22:56.280Z,14.59
2023-05-31T22:25:23.266Z,14.57
2023-05-31T22:27:51.793Z,14.56
2023-05-31T22:30:20.058Z,14.54
2023-05-31T22:32:47.128Z,14.48
2023-05-31T22:35:16.195Z,14.45
2023-05-31T22:37:45.013Z,14.44
2023-05-31T22:40:13.878Z,14.43
2023-05-31T22:42:46.033Z,14.42
2023-05-31T22:45:13.147Z,14.40
2023-05-31T22:47:40.105Z,14.37
2023-05-31T22:50:11.623Z,14.33
2023-05-31T22:52:40.944Z,14.32
2023-05-31T22:55:09.110Z,14.30
2023-05-31T22:57:35.957Z,14.30
2023-05-31T23:00:05.546Z,14.30
2023-05-31T23:02:38.555Z,14.29
2023-05-31T23:05:05.999Z,14.27
2023-05-31T23:07:34.823Z,14.23
2023-05-31T23:10:04.549Z,14.20
2023-05-31T23:12:31.845Z,14.17
2023-05-31T23:14:59.919Z,14.14
2023-05-31T23:17:35.592Z,14.13
2023-05-31T23:20:15.288Z,14.10
2023-05-31T23:22:44.334Z,14.05
2023-05-31T23:25:12.248Z,14.00
2023-05-31T23:27:42.012Z,13.95
2023-05-31T23:30:13.973Z,13.91
2023-05-31T23:32:41.932Z,13.87
2023-05-31T23:35:09.132Z,13.85
2023-05-31T23:37:42.249Z,13.84
2023-05-31T23:40:10.424Z,13.82
2023-05-31T23:42:39.122Z,13.80
2023-05-31T23:45:06.652Z,13.79
2023-05-31T23:47:33.819Z,13.79
2023-05-31T23:50:00.778Z,13.79
2023-05-31T23:52:30.440Z,13.78
2023-05-31T23:55:00.191Z,13.75
2023-05-31T23:57:31.132Z,13.72
2023-05-31T23:59:58.298Z,13.68
